Sao Joaquim, Brazil
Current Conditions -  °F | °C
As of 1:00 PM on Sunday 21 Dec 2014 (Local Time) from SBCM Reporting Station
Broken Clouds Broken Clouds  
Wind Chill: 81°   Ceiling: 8000
Heat Index: 85°   Visibility: 6mi
Dew Point: 73°   Wind: 2mph
Humidity: 79%   Direction: 70°ENE
Pressure: 29.56"   Gusts: NA
Location:  28.29°S, 49.95°W
Report Text: SBCM 211500Z 07002KT 9999 SCT015 BKN080 27/23 Q1001
Loading
Personal Weather Stations






























Interactive Weather Map New forecast layout! Learn more

10-Day Weather Forecast

Advertisements
Track Severe Weather on mobile